PWSweather.com
Personal Weather Stations
Station Observations
WXGLH1124
Southern Oaks, Indianapolis, IN 46217

Southern OaksIndianapolis, IN 46217

Lat: 39.65113, Lon: -86.16866

Elevation: 720

Station Type: Vantage Pro2

High Low Average
Temperature 49.2°F9.6°C 35.2°F1.8°C 42.3°F5.7°C
Dew Point 36.9°F2.7°C 23.5°F-4.7°C 31.4°F-0.3°C
Winds 15.0 mph 24.1 kmh Calm Calm 5.0 mph WSW8.0 kmh WSW
Wind Gusts 19.0 mph30.6 kmh -- 6.0 mph9.7 kmh
Humidity 88% 43% 67%
Pressure 30.26 in1024.7 mb 29.95 in1014.2 mb -
Precipitation 0.00 in0.0 mm - -
Hour Temp Dew Point Humidity Winds Wind Gusts Pressure Precip Precip Rate Daily Precip Total
12:00 AM 41.6°F5.3°C 36.5°F2.5°C 82% 1.0 mph WSW1.6 kmh WSW 1.0 mph1.6 kmh 30.05 in1017.6 mb 0.01 in0.3 mm 0.00 in0.0 mm 0.01 in0.3 mm
12:04 AM 41.5°F5.3°C 36.4°F2.4°C 82% Calm Calm -- 30.05 in1017.6 mb 0.01 in0.3 mm 0.00 in0.0 mm 0.01 in0.3 mm
12:10 AM 41.2°F5.1°C 36.1°F2.3°C 82% Calm Calm -- 30.04 in1017.3 mb 0.01 in0.3 mm 0.00 in0.0 mm 0.01 in0.3 mm
12:15 AM 41.0°F5.0°C 35.9°F2.2°C 82% Calm Calm -- 30.05 in1017.6 mb 0.01 in0.3 mm 0.00 in0.0 mm 0.01 in0.3 mm
12:20 AM 40.8°F4.9°C 35.7°F2.1°C 82% 1.0 mph WSW1.6 kmh WSW 1.0 mph1.6 kmh 30.04 in1017.3 mb 0.01 in0.3 mm 0.00 in0.0 mm 0.01 in0.3 mm
12:25 AM 40.6°F4.8°C 35.9°F2.2°C 83% Calm Calm -- 30.04 in1017.3 mb 0.01 in0.3 mm 0.00 in0.0 mm 0.01 in0.3 mm
12:30 AM 40.4°F4.7°C 35.7°F2.1°C 83% 1.0 mph WSW1.6 kmh WSW 1.0 mph1.6 kmh 30.04 in1017.3 mb 0.00 in0.0 mm 0.00 in0.0 mm 0.01 in0.3 mm
12:35 AM 40.2°F4.6°C 35.5°F1.9°C 83% 1.0 mph WSW1.6 kmh WSW 1.0 mph1.6 kmh 30.04 in1017.3 mb 0.00 in0.0 mm 0.00 in0.0 mm 0.01 in0.3 mm
12:40 AM 40.1°F4.5°C 35.7°F2.1°C 84% 1.0 mph WSW1.6 kmh WSW 1.0 mph1.6 kmh 30.04 in1017.3 mb 0.00 in0.0 mm 0.00 in0.0 mm 0.01 in0.3 mm
12:44 AM 40.0°F4.4°C 35.6°F2.0°C 84% 1.0 mph WSW1.6 kmh WSW 2.0 mph3.2 kmh 30.04 in1017.3 mb 0.00 in0.0 mm 0.00 in0.0 mm 0.01 in0.3 mm
12:49 AM 39.8°F4.3°C 35.4°F1.9°C 84% Calm Calm -- 30.04 in1017.3 mb 0.00 in0.0 mm 0.00 in0.0 mm 0.01 in0.3 mm
12:55 AM 39.8°F4.3°C 35.4°F1.9°C 84% 1.0 mph WSW1.6 kmh WSW 2.0 mph3.2 kmh 30.04 in1017.3 mb 0.00 in0.0 mm 0.00 in0.0 mm 0.01 in0.3 mm
01:00 AM 39.7°F4.3°C 35.3°F1.8°C 84% Calm Calm 1.0 mph1.6 kmh 30.04 in1017.3 mb 0.00 in0.0 mm 0.00 in0.0 mm 0.01 in0.3 mm
01:05 AM 39.5°F4.2°C 35.1°F1.7°C 84% 1.0 mph WSW1.6 kmh WSW 2.0 mph3.2 kmh 30.04 in1017.3 mb 0.00 in0.0 mm 0.00 in0.0 mm 0.01 in0.3 mm
01:10 AM 39.3°F4.1°C 35.2°F1.8°C 85% 1.0 mph WSW1.6 kmh WSW 3.0 mph4.8 kmh 30.03 in1016.9 mb 0.00 in0.0 mm 0.00 in0.0 mm 0.01 in0.3 mm
01:15 AM 39.2°F4.0°C 35.1°F1.7°C 85% 2.0 mph WSW3.2 kmh WSW 2.0 mph3.2 kmh 30.04 in1017.3 mb 0.00 in0.0 mm 0.00 in0.0 mm 0.01 in0.3 mm
01:20 AM 39.2°F4.0°C 35.1°F1.7°C 85% 3.0 mph WSW4.8 kmh WSW 3.0 mph4.8 kmh 30.03 in1016.9 mb 0.00 in0.0 mm 0.00 in0.0 mm 0.01 in0.3 mm
01:25 AM 39.2°F4.0°C 35.1°F1.7°C 85% 4.0 mph SW6.4 kmh SW 4.0 mph6.4 kmh 30.03 in1016.9 mb 0.00 in0.0 mm 0.00 in0.0 mm 0.01 in0.3 mm
01:30 AM 39.2°F4.0°C 35.1°F1.7°C 85% 2.0 mph SW3.2 kmh SW 2.0 mph3.2 kmh 30.03 in1016.9 mb 0.00 in0.0 mm 0.00 in0.0 mm 0.01 in0.3 mm
01:35 AM 39.2°F4.0°C 35.1°F1.7°C 85% 3.0 mph SW4.8 kmh SW 3.0 mph4.8 kmh 30.03 in1016.9 mb 0.00 in0.0 mm 0.00 in0.0 mm 0.01 in0.3 mm
01:40 AM 39.1°F3.9°C 35.0°F1.7°C 85% 2.0 mph SW3.2 kmh SW 4.0 mph6.4 kmh 30.03 in1016.9 mb 0.00 in0.0 mm 0.00 in0.0 mm 0.01 in0.3 mm
01:45 AM 39.0°F3.9°C 34.9°F1.6°C 85% 1.0 mph SW1.6 kmh SW 2.0 mph3.2 kmh 30.03 in1016.9 mb 0.00 in0.0 mm 0.00 in0.0 mm 0.01 in0.3 mm
01:49 AM 38.9°F3.8°C 34.8°F1.6°C 85% 1.0 mph SW1.6 kmh SW 2.0 mph3.2 kmh 30.03 in1016.9 mb 0.00 in0.0 mm 0.00 in0.0 mm 0.01 in0.3 mm
01:55 AM 38.8°F3.8°C 34.7°F1.5°C 85% Calm Calm -- 30.03 in1016.9 mb 0.00 in0.0 mm 0.00 in0.0 mm 0.01 in0.3 mm
02:00 AM 38.7°F3.7°C 34.6°F1.4°C 85% 1.0 mph SW1.6 kmh SW 3.0 mph4.8 kmh 30.03 in1016.9 mb 0.00 in0.0 mm 0.00 in0.0 mm 0.01 in0.3 mm
02:05 AM 38.7°F3.7°C 34.6°F1.4°C 85% 4.0 mph SW6.4 kmh SW 5.0 mph8.0 kmh 30.02 in1016.6 mb 0.00 in0.0 mm 0.00 in0.0 mm 0.01 in0.3 mm
02:10 AM 38.7°F3.7°C 34.6°F1.4°C 85% 4.0 mph SW6.4 kmh SW 4.0 mph6.4 kmh 30.02 in1016.6 mb 0.00 in0.0 mm 0.00 in0.0 mm 0.01 in0.3 mm
02:15 AM 38.7°F3.7°C 34.6°F1.4°C 85% 2.0 mph WSW3.2 kmh WSW 4.0 mph6.4 kmh 30.02 in1016.6 mb 0.00 in0.0 mm 0.00 in0.0 mm 0.01 in0.3 mm
02:20 AM 38.7°F3.7°C 34.6°F1.4°C 85% Calm Calm 1.0 mph1.6 kmh 30.02 in1016.6 mb 0.00 in0.0 mm 0.00 in0.0 mm 0.01 in0.3 mm
02:25 AM 38.6°F3.7°C 34.2°F1.2°C 84% 2.0 mph SW3.2 kmh SW 2.0 mph3.2 kmh 30.02 in1016.6 mb 0.00 in0.0 mm 0.00 in0.0 mm 0.01 in0.3 mm
02:30 AM 38.6°F3.7°C 34.5°F1.4°C 85% 5.0 mph SW8.0 kmh SW 5.0 mph8.0 kmh 30.02 in1016.6 mb 0.00 in0.0 mm 0.00 in0.0 mm 0.01 in0.3 mm
02:35 AM 38.6°F3.7°C 34.2°F1.2°C 84% 2.0 mph SW3.2 kmh SW 2.0 mph3.2 kmh 30.02 in1016.6 mb 0.00 in0.0 mm 0.00 in0.0 mm 0.01 in0.3 mm
02:40 AM 38.5°F3.6°C 34.1°F1.2°C 84% Calm Calm 1.0 mph1.6 kmh 30.02 in1016.6 mb 0.00 in0.0 mm 0.00 in0.0 mm 0.01 in0.3 mm
02:44 AM 38.4°F3.6°C 34.0°F1.1°C 84% 2.0 mph SW3.2 kmh SW 2.0 mph3.2 kmh 30.02 in1016.6 mb 0.00 in0.0 mm 0.00 in0.0 mm 0.01 in0.3 mm
02:50 AM 38.3°F3.5°C 34.2°F1.2°C 85% Calm Calm -- 30.02 in1016.6 mb 0.00 in0.0 mm 0.00 in0.0 mm 0.01 in0.3 mm
02:55 AM 38.3°F3.5°C 34.2°F1.2°C 85% 6.0 mph WSW9.7 kmh WSW 8.0 mph12.9 kmh 30.02 in1016.6 mb 0.00 in0.0 mm 0.00 in0.0 mm 0.01 in0.3 mm
03:00 AM 38.3°F3.5°C 34.2°F1.2°C 85% 2.0 mph WSW3.2 kmh WSW 3.0 mph4.8 kmh 30.02 in1016.6 mb 0.00 in0.0 mm 0.00 in0.0 mm 0.01 in0.3 mm
03:05 AM 38.3°F3.5°C 34.2°F1.2°C 85% 3.0 mph SW4.8 kmh SW 3.0 mph4.8 kmh 30.01 in1016.3 mb 0.00 in0.0 mm 0.00 in0.0 mm 0.01 in0.3 mm
03:10 AM 38.4°F3.6°C 34.3°F1.3°C 85% Calm Calm -- 30.01 in1016.3 mb 0.00 in0.0 mm 0.00 in0.0 mm 0.01 in0.3 mm
03:14 AM 38.4°F3.6°C 34.3°F1.3°C 85% 7.0 mph SW11.3 kmh SW 7.0 mph11.3 kmh 30.01 in1016.3 mb 0.00 in0.0 mm 0.00 in0.0 mm 0.01 in0.3 mm
03:19 AM 38.5°F3.6°C 34.4°F1.3°C 85% 3.0 mph SW4.8 kmh SW 4.0 mph6.4 kmh 30.01 in1016.3 mb 0.00 in0.0 mm 0.00 in0.0 mm 0.01 in0.3 mm
03:25 AM 38.5°F3.6°C 34.4°F1.3°C 85% 3.0 mph WSW4.8 kmh WSW 3.0 mph4.8 kmh 30.00 in1015.9 mb 0.00 in0.0 mm 0.00 in0.0 mm 0.01 in0.3 mm
03:29 AM 38.5°F3.6°C 34.4°F1.3°C 85% Calm Calm -- 30.00 in1015.9 mb 0.00 in0.0 mm 0.00 in0.0 mm 0.01 in0.3 mm
03:34 AM 38.4°F3.6°C 34.3°F1.3°C 85% 3.0 mph WSW4.8 kmh WSW 3.0 mph4.8 kmh 30.00 in1015.9 mb 0.01 in0.3 mm 0.12 in3.0 mm 0.02 in0.5 mm
03:40 AM 38.4°F3.6°C 34.3°F1.3°C 85% 3.0 mph WSW4.8 kmh WSW 3.0 mph4.8 kmh 29.99 in1015.6 mb 0.01 in0.3 mm 0.00 in0.0 mm 0.02 in0.5 mm
03:45 AM 38.5°F3.6°C 34.4°F1.3°C 85% 6.0 mph W9.7 kmh W 6.0 mph9.7 kmh 29.99 in1015.6 mb 0.01 in0.3 mm 0.00 in0.0 mm 0.02 in0.5 mm
03:50 AM 38.7°F3.7°C 34.6°F1.4°C 85% 8.0 mph SSW12.9 kmh SSW 10.0 mph16.1 kmh 29.99 in1015.6 mb 0.01 in0.3 mm 0.00 in0.0 mm 0.02 in0.5 mm
03:55 AM 38.8°F3.8°C 34.4°F1.3°C 84% 2.0 mph WSW3.2 kmh WSW 2.0 mph3.2 kmh 29.99 in1015.6 mb 0.01 in0.3 mm 0.00 in0.0 mm 0.02 in0.5 mm
04:00 AM 38.7°F3.7°C 34.3°F1.3°C 84% 3.0 mph WSW4.8 kmh WSW 4.0 mph6.4 kmh 29.98 in1015.2 mb 0.01 in0.3 mm 0.00 in0.0 mm 0.02 in0.5 mm
04:05 AM 38.7°F3.7°C 34.3°F1.3°C 84% 1.0 mph WSW1.6 kmh WSW 4.0 mph6.4 kmh 29.98 in1015.2 mb 0.01 in0.3 mm 0.00 in0.0 mm 0.02 in0.5 mm
04:10 AM 38.6°F3.7°C 34.2°F1.2°C 84% 3.0 mph W4.8 kmh W 3.0 mph4.8 kmh 29.98 in1015.2 mb 0.01 in0.3 mm 0.00 in0.0 mm 0.02 in0.5 mm
04:15 AM 38.7°F3.7°C 34.6°F1.4°C 85% Calm Calm 2.0 mph3.2 kmh 29.98 in1015.2 mb 0.01 in0.3 mm 0.00 in0.0 mm 0.02 in0.5 mm
04:20 AM 38.8°F3.8°C 34.7°F1.5°C 85% Calm Calm 2.0 mph3.2 kmh 29.98 in1015.2 mb 0.01 in0.3 mm 0.00 in0.0 mm 0.02 in0.5 mm
04:25 AM 38.8°F3.8°C 34.4°F1.3°C 84% 1.0 mph WNW1.6 kmh WNW 1.0 mph1.6 kmh 29.97 in1014.9 mb 0.01 in0.3 mm 0.00 in0.0 mm 0.02 in0.5 mm
04:29 AM 38.7°F3.7°C 34.3°F1.3°C 84% 2.0 mph W3.2 kmh W 2.0 mph3.2 kmh 29.97 in1014.9 mb 0.01 in0.3 mm 0.00 in0.0 mm 0.02 in0.5 mm
04:34 AM 38.7°F3.7°C 34.6°F1.4°C 85% 4.0 mph SW6.4 kmh SW 4.0 mph6.4 kmh 29.97 in1014.9 mb 0.00 in0.0 mm 0.00 in0.0 mm 0.02 in0.5 mm
04:39 AM 38.7°F3.7°C 34.3°F1.3°C 84% 1.0 mph W1.6 kmh W 1.0 mph1.6 kmh 29.97 in1014.9 mb 0.00 in0.0 mm 0.00 in0.0 mm 0.02 in0.5 mm
04:45 AM 38.7°F3.7°C 34.3°F1.3°C 84% 4.0 mph WSW6.4 kmh WSW 6.0 mph9.7 kmh 29.97 in1014.9 mb 0.00 in0.0 mm 0.00 in0.0 mm 0.02 in0.5 mm
04:50 AM 38.7°F3.7°C 34.3°F1.3°C 84% 4.0 mph W6.4 kmh W 4.0 mph6.4 kmh 29.97 in1014.9 mb 0.00 in0.0 mm 0.00 in0.0 mm 0.02 in0.5 mm
04:55 AM 38.8°F3.8°C 34.4°F1.3°C 84% Calm Calm 1.0 mph1.6 kmh 29.96 in1014.6 mb 0.00 in0.0 mm 0.00 in0.0 mm 0.02 in0.5 mm
05:00 AM 38.7°F3.7°C 34.3°F1.3°C 84% 3.0 mph NW4.8 kmh NW 5.0 mph8.0 kmh 29.96 in1014.6 mb 0.00 in0.0 mm 0.00 in0.0 mm 0.02 in0.5 mm
05:05 AM 38.8°F3.8°C 34.4°F1.3°C 84% 1.0 mph W1.6 kmh W 3.0 mph4.8 kmh 29.96 in1014.6 mb 0.00 in0.0 mm 0.00 in0.0 mm 0.02 in0.5 mm
05:10 AM 38.7°F3.7°C 34.3°F1.3°C 84% 2.0 mph SW3.2 kmh SW 2.0 mph3.2 kmh 29.96 in1014.6 mb 0.00 in0.0 mm 0.00 in0.0 mm 0.02 in0.5 mm
05:15 AM 38.6°F3.7°C 34.2°F1.2°C 84% 3.0 mph WSW4.8 kmh WSW 6.0 mph9.7 kmh 29.96 in1014.6 mb 0.00 in0.0 mm 0.00 in0.0 mm 0.02 in0.5 mm
05:20 AM 38.6°F3.7°C 34.2°F1.2°C 84% Calm Calm 2.0 mph3.2 kmh 29.96 in1014.6 mb 0.00 in0.0 mm 0.00 in0.0 mm 0.02 in0.5 mm
05:25 AM 38.6°F3.7°C 34.2°F1.2°C 84% 2.0 mph W3.2 kmh W 2.0 mph3.2 kmh 29.96 in1014.6 mb 0.00 in0.0 mm 0.00 in0.0 mm 0.02 in0.5 mm
05:29 AM 38.6°F3.7°C 34.2°F1.2°C 84% 1.0 mph NW1.6 kmh NW 3.0 mph4.8 kmh 29.96 in1014.6 mb 0.00 in0.0 mm 0.00 in0.0 mm 0.02 in0.5 mm
05:35 AM 38.5°F3.6°C 34.1°F1.2°C 84% 4.0 mph W6.4 kmh W 8.0 mph12.9 kmh 29.95 in1014.2 mb 0.00 in0.0 mm 0.00 in0.0 mm 0.02 in0.5 mm
05:40 AM 38.4°F3.6°C 34.0°F1.1°C 84% 2.0 mph W3.2 kmh W 3.0 mph4.8 kmh 29.96 in1014.6 mb 0.00 in0.0 mm 0.00 in0.0 mm 0.02 in0.5 mm
05:45 AM 38.4°F3.6°C 34.0°F1.1°C 84% 4.0 mph WSW6.4 kmh WSW 8.0 mph12.9 kmh 29.96 in1014.6 mb 0.00 in0.0 mm 0.00 in0.0 mm 0.02 in0.5 mm
05:50 AM 38.4°F3.6°C 34.0°F1.1°C 84% Calm Calm -- 29.95 in1014.2 mb 0.00 in0.0 mm 0.00 in0.0 mm 0.02 in0.5 mm
05:54 AM 38.3°F3.5°C 33.9°F1.1°C 84% 2.0 mph WNW3.2 kmh WNW 2.0 mph3.2 kmh 29.96 in1014.6 mb 0.00 in0.0 mm 0.00 in0.0 mm 0.02 in0.5 mm
06:00 AM 38.2°F3.4°C 33.8°F1.0°C 84% 1.0 mph W1.6 kmh W 7.0 mph11.3 kmh 29.96 in1014.6 mb 0.00 in0.0 mm 0.00 in0.0 mm 0.02 in0.5 mm
06:05 AM 38.2°F3.4°C 34.1°F1.2°C 85% 2.0 mph W3.2 kmh W 3.0 mph4.8 kmh 29.96 in1014.6 mb 0.00 in0.0 mm 0.00 in0.0 mm 0.02 in0.5 mm
06:10 AM 38.0°F3.3°C 33.9°F1.1°C 85% 3.0 mph WNW4.8 kmh WNW 3.0 mph4.8 kmh 29.96 in1014.6 mb 0.00 in0.0 mm 0.00 in0.0 mm 0.02 in0.5 mm
06:15 AM 38.0°F3.3°C 33.9°F1.1°C 85% 3.0 mph WNW4.8 kmh WNW 3.0 mph4.8 kmh 29.96 in1014.6 mb 0.00 in0.0 mm 0.00 in0.0 mm 0.02 in0.5 mm
06:20 AM 37.9°F3.3°C 33.8°F1.0°C 85% 1.0 mph WNW1.6 kmh WNW 3.0 mph4.8 kmh 29.96 in1014.6 mb 0.00 in0.0 mm 0.00 in0.0 mm 0.02 in0.5 mm
06:25 AM 37.9°F3.3°C 33.8°F1.0°C 85% 1.0 mph WNW1.6 kmh WNW 2.0 mph3.2 kmh 29.96 in1014.6 mb 0.00 in0.0 mm 0.00 in0.0 mm 0.02 in0.5 mm
06:29 AM 37.9°F3.3°C 33.8°F1.0°C 85% 1.0 mph WNW1.6 kmh WNW 3.0 mph4.8 kmh 29.96 in1014.6 mb 0.00 in0.0 mm 0.00 in0.0 mm 0.02 in0.5 mm
06:35 AM 37.8°F3.2°C 33.7°F0.9°C 85% 2.0 mph WNW3.2 kmh WNW 2.0 mph3.2 kmh 29.96 in1014.6 mb 0.00 in0.0 mm 0.00 in0.0 mm 0.02 in0.5 mm
06:40 AM 37.7°F3.2°C 33.6°F0.9°C 85% 1.0 mph W1.6 kmh W 2.0 mph3.2 kmh 29.96 in1014.6 mb 0.00 in0.0 mm 0.00 in0.0 mm 0.02 in0.5 mm
06:45 AM 37.7°F3.2°C 33.6°F0.9°C 85% Calm Calm -- 29.97 in1014.9 mb 0.00 in0.0 mm 0.00 in0.0 mm 0.02 in0.5 mm
06:50 AM 37.7°F3.2°C 33.6°F0.9°C 85% 2.0 mph W3.2 kmh W 3.0 mph4.8 kmh 29.97 in1014.9 mb 0.00 in0.0 mm 0.00 in0.0 mm 0.02 in0.5 mm
06:55 AM 37.6°F3.1°C 33.5°F0.8°C 85% 3.0 mph W4.8 kmh W 3.0 mph4.8 kmh 29.97 in1014.9 mb 0.00 in0.0 mm 0.00 in0.0 mm 0.02 in0.5 mm
06:59 AM 37.5°F3.1°C 33.7°F0.9°C 86% Calm Calm -- 29.97 in1014.9 mb 0.00 in0.0 mm 0.00 in0.0 mm 0.02 in0.5 mm
07:05 AM 37.5°F3.1°C 33.7°F0.9°C 86% Calm Calm -- 29.97 in1014.9 mb 0.00 in0.0 mm 0.00 in0.0 mm 0.02 in0.5 mm
07:10 AM 37.4°F3.0°C 33.6°F0.9°C 86% Calm Calm -- 29.97 in1014.9 mb 0.00 in0.0 mm 0.00 in0.0 mm 0.02 in0.5 mm
07:15 AM 37.5°F3.1°C 33.7°F0.9°C 86% Calm Calm -- 29.97 in1014.9 mb 0.00 in0.0 mm 0.00 in0.0 mm 0.02 in0.5 mm
07:20 AM 37.4°F3.0°C 33.6°F0.9°C 86% Calm Calm 1.0 mph1.6 kmh 29.97 in1014.9 mb 0.00 in0.0 mm 0.00 in0.0 mm 0.02 in0.5 mm
07:24 AM 37.3°F2.9°C 33.5°F0.8°C 86% Calm Calm -- 29.97 in1014.9 mb 0.00 in0.0 mm 0.00 in0.0 mm 0.02 in0.5 mm
07:30 AM 37.2°F2.9°C 33.4°F0.8°C 86% 2.0 mph W3.2 kmh W 2.0 mph3.2 kmh 29.97 in1014.9 mb 0.00 in0.0 mm 0.00 in0.0 mm 0.02 in0.5 mm
07:35 AM 37.1°F2.8°C 33.3°F0.7°C 86% Calm Calm -- 29.97 in1014.9 mb 0.00 in0.0 mm 0.00 in0.0 mm 0.02 in0.5 mm
07:40 AM 37.1°F2.8°C 33.3°F0.7°C 86% Calm Calm -- 29.97 in1014.9 mb 0.00 in0.0 mm 0.00 in0.0 mm 0.02 in0.5 mm
07:45 AM 37.0°F2.8°C 33.5°F0.8°C 87% Calm Calm -- 29.97 in1014.9 mb 0.00 in0.0 mm 0.00 in0.0 mm 0.02 in0.5 mm
07:50 AM 36.9°F2.7°C 33.1°F0.6°C 86% Calm Calm -- 29.97 in1014.9 mb 0.00 in0.0 mm 0.00 in0.0 mm 0.02 in0.5 mm
07:55 AM 36.8°F2.7°C 33.3°F0.7°C 87% Calm Calm 1.0 mph1.6 kmh 29.98 in1015.2 mb 0.00 in0.0 mm 0.00 in0.0 mm 0.02 in0.5 mm
07:59 AM 36.8°F2.7°C 33.3°F0.7°C 87% Calm Calm 1.0 mph1.6 kmh 29.98 in1015.2 mb 0.00 in0.0 mm 0.00 in0.0 mm 0.02 in0.5 mm
08:05 AM 36.8°F2.7°C 33.3°F0.7°C 87% 2.0 mph W3.2 kmh W 2.0 mph3.2 kmh 29.98 in1015.2 mb 0.00 in0.0 mm 0.00 in0.0 mm 0.02 in0.5 mm
08:10 AM 36.7°F2.6°C 33.2°F0.7°C 87% Calm Calm -- 29.98 in1015.2 mb 0.00 in0.0 mm 0.00 in0.0 mm 0.02 in0.5 mm
08:15 AM 36.6°F2.6°C 33.1°F0.6°C 87% Calm Calm -- 29.98 in1015.2 mb 0.00 in0.0 mm 0.00 in0.0 mm 0.02 in0.5 mm
08:20 AM 36.6°F2.6°C 33.1°F0.6°C 87% 3.0 mph W4.8 kmh W 3.0 mph4.8 kmh 29.98 in1015.2 mb 0.00 in0.0 mm 0.00 in0.0 mm 0.02 in0.5 mm
08:25 AM 36.6°F2.6°C 33.4°F0.8°C 88% Calm Calm -- 29.98 in1015.2 mb 0.00 in0.0 mm 0.00 in0.0 mm 0.02 in0.5 mm
08:30 AM 36.6°F2.6°C 33.4°F0.8°C 88% Calm Calm -- 29.99 in1015.6 mb 0.00 in0.0 mm 0.00 in0.0 mm 0.02 in0.5 mm
08:35 AM 36.7°F2.6°C 33.5°F0.8°C 88% Calm Calm 1.0 mph1.6 kmh 29.99 in1015.6 mb 0.00 in0.0 mm 0.00 in0.0 mm 0.02 in0.5 mm
08:40 AM 36.8°F2.7°C 33.6°F0.9°C 88% Calm Calm -- 29.99 in1015.6 mb 0.00 in0.0 mm 0.00 in0.0 mm 0.02 in0.5 mm
08:45 AM 36.9°F2.7°C 33.7°F0.9°C 88% Calm Calm -- 29.99 in1015.6 mb 0.00 in0.0 mm 0.00 in0.0 mm 0.02 in0.5 mm
08:49 AM 37.1°F2.8°C 33.9°F1.1°C 88% Calm Calm -- 30.00 in1015.9 mb 0.00 in0.0 mm 0.00 in0.0 mm 0.02 in0.5 mm
08:55 AM 37.4°F3.0°C 34.2°F1.2°C 88% Calm Calm 1.0 mph1.6 kmh 29.99 in1015.6 mb 0.00 in0.0 mm 0.00 in0.0 mm 0.02 in0.5 mm
09:00 AM 37.8°F3.2°C 34.6°F1.4°C 88% 4.0 mph W6.4 kmh W 7.0 mph11.3 kmh 29.99 in1015.6 mb 0.00 in0.0 mm 0.00 in0.0 mm 0.02 in0.5 mm
09:05 AM 38.1°F3.4°C 34.9°F1.6°C 88% Calm Calm 2.0 mph3.2 kmh 29.99 in1015.6 mb 0.00 in0.0 mm 0.00 in0.0 mm 0.02 in0.5 mm
09:10 AM 38.4°F3.6°C 35.2°F1.8°C 88% 5.0 mph NW8.0 kmh NW 5.0 mph8.0 kmh 30.00 in1015.9 mb 0.00 in0.0 mm 0.00 in0.0 mm 0.02 in0.5 mm
09:15 AM 38.8°F3.8°C 35.6°F2.0°C 88% 4.0 mph NNW6.4 kmh NNW 4.0 mph6.4 kmh 30.00 in1015.9 mb 0.01 in0.3 mm 0.12 in3.0 mm 0.03 in0.8 mm
09:19 AM 39.2°F4.0°C 35.7°F2.1°C 87% 2.0 mph N3.2 kmh N 2.0 mph3.2 kmh 30.00 in1015.9 mb 0.01 in0.3 mm 0.00 in0.0 mm 0.03 in0.8 mm
09:24 AM 39.5°F4.2°C 36.0°F2.2°C 87% 2.0 mph NW3.2 kmh NW 5.0 mph8.0 kmh 30.00 in1015.9 mb 0.01 in0.3 mm 0.00 in0.0 mm 0.03 in0.8 mm
09:29 AM 39.8°F4.3°C 36.0°F2.2°C 86% 5.0 mph NW8.0 kmh NW 5.0 mph8.0 kmh 30.00 in1015.9 mb 0.01 in0.3 mm 0.00 in0.0 mm 0.03 in0.8 mm
09:35 AM 40.1°F4.5°C 36.3°F2.4°C 86% 1.0 mph NW1.6 kmh NW 3.0 mph4.8 kmh 30.00 in1015.9 mb 0.01 in0.3 mm 0.00 in0.0 mm 0.03 in0.8 mm
09:39 AM 40.3°F4.6°C 36.2°F2.3°C 85% 2.0 mph NNW3.2 kmh NNW 4.0 mph6.4 kmh 30.00 in1015.9 mb 0.01 in0.3 mm 0.00 in0.0 mm 0.03 in0.8 mm
09:44 AM 40.6°F4.8°C 36.5°F2.5°C 85% 6.0 mph N9.7 kmh N 6.0 mph9.7 kmh 30.00 in1015.9 mb 0.01 in0.3 mm 0.00 in0.0 mm 0.03 in0.8 mm
09:50 AM 40.8°F4.9°C 36.4°F2.4°C 84% 6.0 mph N9.7 kmh N 6.0 mph9.7 kmh 30.00 in1015.9 mb 0.01 in0.3 mm 0.00 in0.0 mm 0.03 in0.8 mm
09:55 AM 41.1°F5.1°C 36.3°F2.4°C 83% 8.0 mph NNW12.9 kmh NNW 8.0 mph12.9 kmh 30.01 in1016.3 mb 0.01 in0.3 mm 0.00 in0.0 mm 0.03 in0.8 mm
10:00 AM 41.3°F5.2°C 36.5°F2.5°C 83% 10.0 mph NW16.1 kmh NW 10.0 mph16.1 kmh 30.01 in1016.3 mb 0.01 in0.3 mm 0.00 in0.0 mm 0.03 in0.8 mm
10:05 AM 41.6°F5.3°C 36.5°F2.5°C 82% 10.0 mph N16.1 kmh N 14.0 mph22.5 kmh 30.01 in1016.3 mb 0.01 in0.3 mm 0.00 in0.0 mm 0.03 in0.8 mm
10:10 AM 42.0°F5.6°C 36.9°F2.7°C 82% 8.0 mph NW12.9 kmh NW 9.0 mph14.5 kmh 30.01 in1016.3 mb 0.01 in0.3 mm 0.00 in0.0 mm 0.03 in0.8 mm
10:15 AM 42.2°F5.7°C 36.5°F2.5°C 80% 10.0 mph NNW16.1 kmh NNW 11.0 mph17.7 kmh 30.01 in1016.3 mb 0.00 in0.0 mm 0.00 in0.0 mm 0.03 in0.8 mm
10:19 AM 42.3°F5.7°C 36.6°F2.6°C 80% 4.0 mph NW6.4 kmh NW 9.0 mph14.5 kmh 30.01 in1016.3 mb 0.00 in0.0 mm 0.00 in0.0 mm 0.03 in0.8 mm
10:24 AM 42.5°F5.8°C 36.8°F2.7°C 80% 9.0 mph NNW14.5 kmh NNW 11.0 mph17.7 kmh 30.01 in1016.3 mb 0.00 in0.0 mm 0.00 in0.0 mm 0.03 in0.8 mm
10:30 AM 42.6°F5.9°C 36.2°F2.3°C 78% 13.0 mph N20.9 kmh N 13.0 mph20.9 kmh 30.02 in1016.6 mb 0.00 in0.0 mm 0.00 in0.0 mm 0.03 in0.8 mm
10:35 AM 42.6°F5.9°C 36.2°F2.3°C 78% 15.0 mph N24.1 kmh N 15.0 mph24.1 kmh 30.02 in1016.6 mb 0.00 in0.0 mm 0.00 in0.0 mm 0.03 in0.8 mm
10:40 AM 42.7°F5.9°C 36.3°F2.4°C 78% 9.0 mph N14.5 kmh N 13.0 mph20.9 kmh 30.02 in1016.6 mb 0.00 in0.0 mm 0.00 in0.0 mm 0.03 in0.8 mm
10:45 AM 43.1°F6.2°C 36.7°F2.6°C 78% 8.0 mph N12.9 kmh N 9.0 mph14.5 kmh 30.03 in1016.9 mb 0.00 in0.0 mm 0.00 in0.0 mm 0.03 in0.8 mm
10:50 AM 43.1°F6.2°C 36.4°F2.4°C 77% 9.0 mph NNW14.5 kmh NNW 9.0 mph14.5 kmh 30.03 in1016.9 mb 0.00 in0.0 mm 0.00 in0.0 mm 0.03 in0.8 mm
10:55 AM 43.3°F6.3°C 36.6°F2.6°C 77% 8.0 mph NNW12.9 kmh NNW 9.0 mph14.5 kmh 30.03 in1016.9 mb 0.00 in0.0 mm 0.00 in0.0 mm 0.03 in0.8 mm
11:00 AM 43.6°F6.4°C 36.6°F2.6°C 76% 6.0 mph NW9.7 kmh NW 6.0 mph9.7 kmh 30.03 in1016.9 mb 0.00 in0.0 mm 0.00 in0.0 mm 0.03 in0.8 mm
11:05 AM 44.0°F6.7°C 36.6°F2.6°C 75% 5.0 mph NNW8.0 kmh NNW 7.0 mph11.3 kmh 30.04 in1017.3 mb 0.00 in0.0 mm 0.00 in0.0 mm 0.03 in0.8 mm
11:10 AM 44.3°F6.8°C 35.2°F1.8°C 70% 9.0 mph NNE14.5 kmh NNE 9.0 mph14.5 kmh 30.04 in1017.3 mb 0.00 in0.0 mm 0.00 in0.0 mm 0.03 in0.8 mm
11:15 AM 44.6°F7.0°C 34.7°F1.5°C 68% 5.0 mph N8.0 kmh N 9.0 mph14.5 kmh 30.05 in1017.6 mb 0.00 in0.0 mm 0.00 in0.0 mm 0.03 in0.8 mm
11:20 AM 44.9°F7.2°C 35.0°F1.7°C 68% 13.0 mph NW20.9 kmh NW 13.0 mph20.9 kmh 30.05 in1017.6 mb 0.00 in0.0 mm 0.00 in0.0 mm 0.03 in0.8 mm
11:25 AM 44.9°F7.2°C 35.0°F1.7°C 68% 11.0 mph WNW17.7 kmh WNW 11.0 mph17.7 kmh 30.05 in1017.6 mb 0.00 in0.0 mm 0.00 in0.0 mm 0.03 in0.8 mm
11:30 AM 45.1°F7.3°C 34.4°F1.3°C 66% 12.0 mph NW19.3 kmh NW 12.0 mph19.3 kmh 30.05 in1017.6 mb 0.00 in0.0 mm 0.00 in0.0 mm 0.03 in0.8 mm
11:35 AM 45.5°F7.5°C 35.2°F1.8°C 67% 5.0 mph N8.0 kmh N 10.0 mph16.1 kmh 30.06 in1017.9 mb 0.00 in0.0 mm 0.00 in0.0 mm 0.03 in0.8 mm
11:39 AM 45.8°F7.7°C 34.3°F1.3°C 64% 5.0 mph NW8.0 kmh NW 5.0 mph8.0 kmh 30.06 in1017.9 mb 0.00 in0.0 mm 0.00 in0.0 mm 0.03 in0.8 mm
11:45 AM 46.1°F7.8°C 34.6°F1.4°C 64% 4.0 mph N6.4 kmh N 8.0 mph12.9 kmh 30.06 in1017.9 mb 0.00 in0.0 mm 0.00 in0.0 mm 0.03 in0.8 mm
11:50 AM 46.0°F7.8°C 33.3°F0.7°C 61% 8.0 mph NW12.9 kmh NW 11.0 mph17.7 kmh 30.06 in1017.9 mb 0.00 in0.0 mm 0.00 in0.0 mm 0.03 in0.8 mm
11:54 AM 46.3°F7.9°C 34.0°F1.1°C 62% 6.0 mph N9.7 kmh N 11.0 mph17.7 kmh 30.07 in1018.3 mb 0.00 in0.0 mm 0.00 in0.0 mm 0.03 in0.8 mm
12:00 PM 46.6°F8.1°C 33.5°F0.8°C 60% 9.0 mph N14.5 kmh N 18.0 mph29.0 kmh 30.07 in1018.3 mb 0.00 in0.0 mm 0.00 in0.0 mm 0.03 in0.8 mm
12:05 PM 46.4°F8.0°C 32.9°F0.5°C 59% 13.0 mph N20.9 kmh N 13.0 mph20.9 kmh 30.07 in1018.3 mb 0.00 in0.0 mm 0.00 in0.0 mm 0.03 in0.8 mm
12:10 PM 46.4°F8.0°C 32.9°F0.5°C 59% 5.0 mph N8.0 kmh N 6.0 mph9.7 kmh 30.07 in1018.3 mb 0.00 in0.0 mm 0.00 in0.0 mm 0.03 in0.8 mm
12:15 PM 46.9°F8.3°C 32.9°F0.5°C 58% 10.0 mph N16.1 kmh N 10.0 mph16.1 kmh 30.07 in1018.3 mb 0.00 in0.0 mm 0.00 in0.0 mm 0.03 in0.8 mm
12:20 PM 47.3°F8.5°C 32.4°F0.2°C 56% 13.0 mph NNE20.9 kmh NNE 13.0 mph20.9 kmh 30.07 in1018.3 mb 0.00 in0.0 mm 0.00 in0.0 mm 0.03 in0.8 mm
12:25 PM 47.5°F8.6°C 31.7°F-0.2°C 54% 12.0 mph NW19.3 kmh NW 12.0 mph19.3 kmh 30.08 in1018.6 mb 0.00 in0.0 mm 0.00 in0.0 mm 0.03 in0.8 mm
12:29 PM 46.8°F8.2°C 31.1°F-0.5°C 54% 9.0 mph NNW14.5 kmh NNW 17.0 mph27.4 kmh 30.08 in1018.6 mb 0.00 in0.0 mm 0.00 in0.0 mm 0.03 in0.8 mm
12:35 PM 46.7°F8.2°C 31.4°F-0.3°C 55% 8.0 mph NNW12.9 kmh NNW 10.0 mph16.1 kmh 30.07 in1018.3 mb 0.00 in0.0 mm 0.00 in0.0 mm 0.03 in0.8 mm
12:40 PM 47.1°F8.4°C 31.3°F-0.4°C 54% 9.0 mph N14.5 kmh N 16.0 mph25.7 kmh 30.08 in1018.6 mb 0.00 in0.0 mm 0.00 in0.0 mm 0.03 in0.8 mm
12:44 PM 47.4°F8.6°C 32.1°F0.1°C 55% 11.0 mph N17.7 kmh N 13.0 mph20.9 kmh 30.08 in1018.6 mb 0.00 in0.0 mm 0.00 in0.0 mm 0.03 in0.8 mm
12:50 PM 47.5°F8.6°C 32.2°F0.1°C 55% 11.0 mph N17.7 kmh N 11.0 mph17.7 kmh 30.08 in1018.6 mb 0.00 in0.0 mm 0.00 in0.0 mm 0.03 in0.8 mm
12:55 PM 47.5°F8.6°C 32.2°F0.1°C 55% 12.0 mph NNW19.3 kmh NNW 17.0 mph27.4 kmh 30.08 in1018.6 mb 0.00 in0.0 mm 0.00 in0.0 mm 0.03 in0.8 mm
01:00 PM 47.3°F8.5°C 31.1°F-0.5°C 53% 10.0 mph NNW16.1 kmh NNW 11.0 mph17.7 kmh 30.08 in1018.6 mb 0.00 in0.0 mm 0.00 in0.0 mm 0.03 in0.8 mm
01:05 PM 47.2°F8.4°C 31.4°F-0.3°C 54% 8.0 mph NNW12.9 kmh NNW 9.0 mph14.5 kmh 30.09 in1019.0 mb 0.00 in0.0 mm 0.00 in0.0 mm 0.03 in0.8 mm
01:10 PM 47.6°F8.7°C 31.3°F-0.4°C 53% 12.0 mph N19.3 kmh N 19.0 mph30.6 kmh 30.08 in1018.6 mb 0.00 in0.0 mm 0.00 in0.0 mm 0.03 in0.8 mm
01:15 PM 47.0°F8.3°C 30.3°F-0.9°C 52% 11.0 mph N17.7 kmh N 12.0 mph19.3 kmh 30.09 in1019.0 mb 0.00 in0.0 mm 0.00 in0.0 mm 0.03 in0.8 mm
01:20 PM 46.9°F8.3°C 30.2°F-1.0°C 52% 6.0 mph N9.7 kmh N 12.0 mph19.3 kmh 30.09 in1019.0 mb 0.00 in0.0 mm 0.00 in0.0 mm 0.03 in0.8 mm
01:25 PM 47.2°F8.4°C 31.4°F-0.3°C 54% 12.0 mph NNW19.3 kmh NNW 16.0 mph25.7 kmh 30.09 in1019.0 mb 0.00 in0.0 mm 0.00 in0.0 mm 0.03 in0.8 mm
01:30 PM 47.4°F8.6°C 30.7°F-0.7°C 52% 8.0 mph N12.9 kmh N 9.0 mph14.5 kmh 30.09 in1019.0 mb 0.00 in0.0 mm 0.00 in0.0 mm 0.03 in0.8 mm
01:35 PM 47.6°F8.7°C 30.4°F-0.9°C 51% 9.0 mph NNW14.5 kmh NNW 10.0 mph16.1 kmh 30.09 in1019.0 mb 0.00 in0.0 mm 0.00 in0.0 mm 0.03 in0.8 mm
01:40 PM 47.3°F8.5°C 29.6°F-1.3°C 50% 15.0 mph NW24.1 kmh NW 17.0 mph27.4 kmh 30.09 in1019.0 mb 0.00 in0.0 mm 0.00 in0.0 mm 0.03 in0.8 mm
01:45 PM 46.9°F8.3°C 29.7°F-1.3°C 51% 11.0 mph NNW17.7 kmh NNW 13.0 mph20.9 kmh 30.09 in1019.0 mb 0.00 in0.0 mm 0.00 in0.0 mm 0.03 in0.8 mm
01:50 PM 47.1°F8.4°C 29.9°F-1.2°C 51% 10.0 mph N16.1 kmh N 14.0 mph22.5 kmh 30.10 in1019.3 mb 0.00 in0.0 mm 0.00 in0.0 mm 0.03 in0.8 mm
01:55 PM 46.6°F8.1°C 29.5°F-1.4°C 51% 11.0 mph NNW17.7 kmh NNW 11.0 mph17.7 kmh 30.10 in1019.3 mb 0.00 in0.0 mm 0.00 in0.0 mm 0.03 in0.8 mm
02:00 PM 46.7°F8.2°C 29.1°F-1.6°C 50% 9.0 mph NW14.5 kmh NW 10.0 mph16.1 kmh 30.10 in1019.3 mb 0.01 in0.3 mm 0.01 in0.3 mm 0.04 in1.0 mm
02:05 PM 47.4°F8.6°C 29.7°F-1.3°C 50% 10.0 mph N16.1 kmh N 15.0 mph24.1 kmh 30.10 in1019.3 mb 0.01 in0.3 mm 0.00 in0.0 mm 0.04 in1.0 mm
02:09 PM 47.4°F8.6°C 29.2°F-1.6°C 49% 9.0 mph NW14.5 kmh NW 12.0 mph19.3 kmh 30.10 in1019.3 mb 0.01 in0.3 mm 0.00 in0.0 mm 0.04 in1.0 mm
02:15 PM 47.5°F8.6°C 28.8°F-1.8°C 48% 6.0 mph NNW9.7 kmh NNW 9.0 mph14.5 kmh 30.10 in1019.3 mb 0.01 in0.3 mm 0.00 in0.0 mm 0.04 in1.0 mm
02:20 PM 47.5°F8.6°C 29.3°F-1.5°C 49% 10.0 mph N16.1 kmh N 10.0 mph16.1 kmh 30.10 in1019.3 mb 0.01 in0.3 mm 0.00 in0.0 mm 0.04 in1.0 mm
02:25 PM 47.8°F8.8°C 28.6°F-1.9°C 47% 8.0 mph N12.9 kmh N 11.0 mph17.7 kmh 30.10 in1019.3 mb 0.01 in0.3 mm 0.00 in0.0 mm 0.04 in1.0 mm
02:30 PM 48.2°F9.0°C 28.9°F-1.7°C 47% 10.0 mph NW16.1 kmh NW 10.0 mph16.1 kmh 30.10 in1019.3 mb 0.01 in0.3 mm 0.00 in0.0 mm 0.04 in1.0 mm
02:35 PM 48.1°F8.9°C 28.3°F-2.1°C 46% 6.0 mph N9.7 kmh N 12.0 mph19.3 kmh 30.10 in1019.3 mb 0.01 in0.3 mm 0.00 in0.0 mm 0.04 in1.0 mm
02:39 PM 48.1°F8.9°C 28.8°F-1.8°C 47% 10.0 mph N16.1 kmh N 10.0 mph16.1 kmh 30.10 in1019.3 mb 0.01 in0.3 mm 0.00 in0.0 mm 0.04 in1.0 mm
02:45 PM 47.9°F8.8°C 28.1°F-2.2°C 46% 11.0 mph N17.7 kmh N 11.0 mph17.7 kmh 30.10 in1019.3 mb 0.01 in0.3 mm 0.00 in0.0 mm 0.04 in1.0 mm
02:50 PM 48.0°F8.9°C 28.2°F-2.1°C 46% 8.0 mph NNW12.9 kmh NNW 8.0 mph12.9 kmh 30.10 in1019.3 mb 0.01 in0.3 mm 0.00 in0.0 mm 0.04 in1.0 mm
02:55 PM 48.1°F8.9°C 28.8°F-1.8°C 47% 10.0 mph N16.1 kmh N 16.0 mph25.7 kmh 30.10 in1019.3 mb 0.01 in0.3 mm 0.00 in0.0 mm 0.04 in1.0 mm
03:00 PM 48.4°F9.1°C 28.6°F-1.9°C 46% 5.0 mph N8.0 kmh N 8.0 mph12.9 kmh 30.10 in1019.3 mb 0.00 in0.0 mm 0.00 in0.0 mm 0.04 in1.0 mm
03:05 PM 48.8°F9.3°C 27.9°F-2.3°C 44% 14.0 mph N22.5 kmh N 14.0 mph22.5 kmh 30.10 in1019.3 mb 0.00 in0.0 mm 0.00 in0.0 mm 0.04 in1.0 mm
03:10 PM 48.4°F9.1°C 28.1°F-2.2°C 45% 9.0 mph NW14.5 kmh NW 10.0 mph16.1 kmh 30.10 in1019.3 mb 0.00 in0.0 mm 0.00 in0.0 mm 0.04 in1.0 mm
03:15 PM 48.3°F9.1°C 28.5°F-1.9°C 46% 12.0 mph NNW19.3 kmh NNW 12.0 mph19.3 kmh 30.10 in1019.3 mb 0.00 in0.0 mm 0.00 in0.0 mm 0.04 in1.0 mm
03:20 PM 48.6°F9.2°C 28.2°F-2.1°C 45% 8.0 mph NNE12.9 kmh NNE 9.0 mph14.5 kmh 30.10 in1019.3 mb 0.00 in0.0 mm 0.00 in0.0 mm 0.04 in1.0 mm
03:25 PM 48.6°F9.2°C 27.1°F-2.7°C 43% 6.0 mph NNW9.7 kmh NNW 8.0 mph12.9 kmh 30.10 in1019.3 mb 0.00 in0.0 mm 0.00 in0.0 mm 0.04 in1.0 mm
03:30 PM 48.5°F9.2°C 27.6°F-2.4°C 44% 3.0 mph N4.8 kmh N 6.0 mph9.7 kmh 30.10 in1019.3 mb 0.00 in0.0 mm 0.00 in0.0 mm 0.04 in1.0 mm
03:35 PM 48.9°F9.4°C 28.0°F-2.2°C 44% 3.0 mph NNW4.8 kmh NNW 5.0 mph8.0 kmh 30.10 in1019.3 mb 0.00 in0.0 mm 0.00 in0.0 mm 0.04 in1.0 mm
03:40 PM 49.1°F9.5°C 28.2°F-2.1°C 44% 4.0 mph N6.4 kmh N 6.0 mph9.7 kmh 30.10 in1019.3 mb 0.00 in0.0 mm 0.00 in0.0 mm 0.04 in1.0 mm
03:45 PM 48.9°F9.4°C 28.5°F-1.9°C 45% 6.0 mph NNW9.7 kmh NNW 12.0 mph19.3 kmh 30.10 in1019.3 mb 0.00 in0.0 mm 0.00 in0.0 mm 0.04 in1.0 mm
03:50 PM 48.6°F9.2°C 27.1°F-2.7°C 43% 13.0 mph NNW20.9 kmh NNW 13.0 mph20.9 kmh 30.10 in1019.3 mb 0.00 in0.0 mm 0.00 in0.0 mm 0.04 in1.0 mm
03:55 PM 48.7°F9.3°C 28.3°F-2.1°C 45% 9.0 mph N14.5 kmh N 12.0 mph19.3 kmh 30.10 in1019.3 mb 0.00 in0.0 mm 0.00 in0.0 mm 0.04 in1.0 mm
04:00 PM 48.8°F9.3°C 28.4°F-2.0°C 45% 12.0 mph NW19.3 kmh NW 12.0 mph19.3 kmh 30.11 in1019.6 mb 0.00 in0.0 mm 0.00 in0.0 mm 0.04 in1.0 mm
04:05 PM 48.8°F9.3°C 27.9°F-2.3°C 44% 9.0 mph NNE14.5 kmh NNE 12.0 mph19.3 kmh 30.10 in1019.3 mb 0.00 in0.0 mm 0.00 in0.0 mm 0.04 in1.0 mm
04:10 PM 48.8°F9.3°C 27.3°F-2.6°C 43% 13.0 mph NNW20.9 kmh NNW 13.0 mph20.9 kmh 30.11 in1019.6 mb 0.00 in0.0 mm 0.00 in0.0 mm 0.04 in1.0 mm
04:15 PM 48.5°F9.2°C 28.2°F-2.1°C 45% 10.0 mph NW16.1 kmh NW 10.0 mph16.1 kmh 30.11 in1019.6 mb 0.00 in0.0 mm 0.00 in0.0 mm 0.04 in1.0 mm
04:20 PM 48.6°F9.2°C 28.2°F-2.1°C 45% 14.0 mph N22.5 kmh N 14.0 mph22.5 kmh 30.11 in1019.6 mb 0.00 in0.0 mm 0.00 in0.0 mm 0.04 in1.0 mm
04:24 PM 48.7°F9.3°C 28.3°F-2.1°C 45% 12.0 mph NNW19.3 kmh NNW 13.0 mph20.9 kmh 30.11 in1019.6 mb 0.00 in0.0 mm 0.00 in0.0 mm 0.04 in1.0 mm
04:30 PM 48.9°F9.4°C 28.0°F-2.2°C 44% 10.0 mph N16.1 kmh N 12.0 mph19.3 kmh 30.11 in1019.6 mb 0.00 in0.0 mm 0.00 in0.0 mm 0.04 in1.0 mm
04:34 PM 48.8°F9.3°C 27.9°F-2.3°C 44% 12.0 mph N19.3 kmh N 12.0 mph19.3 kmh 30.11 in1019.6 mb 0.00 in0.0 mm 0.00 in0.0 mm 0.04 in1.0 mm
04:40 PM 48.9°F9.4°C 28.5°F-1.9°C 45% 14.0 mph NNW22.5 kmh NNW 14.0 mph22.5 kmh 30.11 in1019.6 mb 0.00 in0.0 mm 0.00 in0.0 mm 0.04 in1.0 mm
04:45 PM 49.0°F9.4°C 28.6°F-1.9°C 45% 2.0 mph NNE3.2 kmh NNE 3.0 mph4.8 kmh 30.11 in1019.6 mb 0.00 in0.0 mm 0.00 in0.0 mm 0.04 in1.0 mm
04:50 PM 49.2°F9.6°C 29.3°F-1.5°C 46% 10.0 mph NNW16.1 kmh NNW 10.0 mph16.1 kmh 30.11 in1019.6 mb 0.00 in0.0 mm 0.00 in0.0 mm 0.04 in1.0 mm
04:55 PM 49.1°F9.5°C 28.2°F-2.1°C 44% 10.0 mph NNW16.1 kmh NNW 11.0 mph17.7 kmh 30.11 in1019.6 mb 0.00 in0.0 mm 0.00 in0.0 mm 0.04 in1.0 mm
05:00 PM 48.8°F9.3°C 28.4°F-2.0°C 45% 9.0 mph NNW14.5 kmh NNW 9.0 mph14.5 kmh 30.11 in1019.6 mb 0.00 in0.0 mm 0.00 in0.0 mm 0.04 in1.0 mm
05:04 PM 48.9°F9.4°C 29.1°F-1.6°C 46% 5.0 mph NW8.0 kmh NW 5.0 mph8.0 kmh 30.12 in1020.0 mb 0.00 in0.0 mm 0.00 in0.0 mm 0.04 in1.0 mm
05:09 PM 49.0°F9.4°C 29.1°F-1.6°C 46% 10.0 mph NW16.1 kmh NW 10.0 mph16.1 kmh 30.12 in1020.0 mb 0.00 in0.0 mm 0.00 in0.0 mm 0.04 in1.0 mm
05:15 PM 48.9°F9.4°C 28.5°F-1.9°C 45% 9.0 mph NNW14.5 kmh NNW 9.0 mph14.5 kmh 30.12 in1020.0 mb 0.00 in0.0 mm 0.00 in0.0 mm 0.04 in1.0 mm
05:20 PM 48.8°F9.3°C 28.4°F-2.0°C 45% 9.0 mph NW14.5 kmh NW 9.0 mph14.5 kmh 30.13 in1020.3 mb 0.00 in0.0 mm 0.00 in0.0 mm 0.04 in1.0 mm
05:25 PM 48.8°F9.3°C 29.5°F-1.4°C 47% 4.0 mph NNW6.4 kmh NNW 8.0 mph12.9 kmh 30.13 in1020.3 mb 0.00 in0.0 mm 0.00 in0.0 mm 0.04 in1.0 mm
05:30 PM 48.8°F9.3°C 29.0°F-1.7°C 46% 3.0 mph N4.8 kmh N 8.0 mph12.9 kmh 30.13 in1020.3 mb 0.00 in0.0 mm 0.00 in0.0 mm 0.04 in1.0 mm
05:34 PM 48.9°F9.4°C 29.6°F-1.3°C 47% 5.0 mph N8.0 kmh N 6.0 mph9.7 kmh 30.13 in1020.3 mb 0.00 in0.0 mm 0.00 in0.0 mm 0.04 in1.0 mm
05:40 PM 49.0°F9.4°C 29.1°F-1.6°C 46% 10.0 mph N16.1 kmh N 10.0 mph16.1 kmh 30.14 in1020.7 mb 0.00 in0.0 mm 0.00 in0.0 mm 0.04 in1.0 mm
05:45 PM 48.9°F9.4°C 29.1°F-1.6°C 46% 8.0 mph NW12.9 kmh NW 11.0 mph17.7 kmh 30.14 in1020.7 mb 0.00 in0.0 mm 0.00 in0.0 mm 0.04 in1.0 mm
05:50 PM 48.7°F9.3°C 27.8°F-2.3°C 44% 6.0 mph N9.7 kmh N 11.0 mph17.7 kmh 30.14 in1020.7 mb 0.00 in0.0 mm 0.00 in0.0 mm 0.04 in1.0 mm
05:55 PM 48.4°F9.1°C 28.1°F-2.2°C 45% 5.0 mph NNW8.0 kmh NNW 10.0 mph16.1 kmh 30.14 in1020.7 mb 0.00 in0.0 mm 0.00 in0.0 mm 0.04 in1.0 mm
06:00 PM 48.2°F9.0°C 28.4°F-2.0°C 46% 8.0 mph NNE12.9 kmh NNE 12.0 mph19.3 kmh 30.14 in1020.7 mb 0.00 in0.0 mm 0.00 in0.0 mm 0.04 in1.0 mm
06:05 PM 48.2°F9.0°C 28.4°F-2.0°C 46% 5.0 mph N8.0 kmh N 8.0 mph12.9 kmh 30.14 in1020.7 mb 0.00 in0.0 mm 0.00 in0.0 mm 0.04 in1.0 mm
06:09 PM 48.3°F9.1°C 28.5°F-1.9°C 46% 10.0 mph NW16.1 kmh NW 10.0 mph16.1 kmh 30.15 in1021.0 mb 0.00 in0.0 mm 0.00 in0.0 mm 0.04 in1.0 mm
06:15 PM 48.4°F9.1°C 28.6°F-1.9°C 46% 5.0 mph NW8.0 kmh NW 8.0 mph12.9 kmh 30.14 in1020.7 mb 0.00 in0.0 mm 0.00 in0.0 mm 0.04 in1.0 mm
06:20 PM 48.4°F9.1°C 29.1°F-1.6°C 47% 9.0 mph NW14.5 kmh NW 11.0 mph17.7 kmh 30.15 in1021.0 mb 0.00 in0.0 mm 0.00 in0.0 mm 0.04 in1.0 mm
06:25 PM 48.2°F9.0°C 28.4°F-2.0°C 46% 9.0 mph NW14.5 kmh NW 11.0 mph17.7 kmh 30.15 in1021.0 mb 0.00 in0.0 mm 0.00 in0.0 mm 0.04 in1.0 mm
06:30 PM 48.1°F8.9°C 28.8°F-1.8°C 47% 6.0 mph NW9.7 kmh NW 6.0 mph9.7 kmh 30.15 in1021.0 mb 0.00 in0.0 mm 0.00 in0.0 mm 0.04 in1.0 mm
06:35 PM 48.2°F9.0°C 28.9°F-1.7°C 47% 9.0 mph NNW14.5 kmh NNW 9.0 mph14.5 kmh 30.15 in1021.0 mb 0.00 in0.0 mm 0.00 in0.0 mm 0.04 in1.0 mm
06:40 PM 48.1°F8.9°C 29.4°F-1.4°C 48% 8.0 mph N12.9 kmh N 8.0 mph12.9 kmh 30.15 in1021.0 mb 0.00 in0.0 mm 0.00 in0.0 mm 0.04 in1.0 mm
06:45 PM 47.9°F8.8°C 28.7°F-1.8°C 47% 8.0 mph N12.9 kmh N 9.0 mph14.5 kmh 30.15 in1021.0 mb 0.00 in0.0 mm 0.00 in0.0 mm 0.04 in1.0 mm
06:50 PM 47.8°F8.8°C 28.6°F-1.9°C 47% 3.0 mph NNW4.8 kmh NNW 5.0 mph8.0 kmh 30.15 in1021.0 mb 0.00 in0.0 mm 0.00 in0.0 mm 0.04 in1.0 mm
06:55 PM 47.8°F8.8°C 29.1°F-1.6°C 48% 8.0 mph N12.9 kmh N 10.0 mph16.1 kmh 30.15 in1021.0 mb 0.00 in0.0 mm 0.00 in0.0 mm 0.04 in1.0 mm
07:00 PM 47.5°F8.6°C 29.3°F-1.5°C 49% 8.0 mph NW12.9 kmh NW 10.0 mph16.1 kmh 30.15 in1021.0 mb 0.00 in0.0 mm 0.00 in0.0 mm 0.04 in1.0 mm
07:05 PM 47.5°F8.6°C 29.8°F-1.2°C 50% 6.0 mph NW9.7 kmh NW 8.0 mph12.9 kmh 30.15 in1021.0 mb 0.00 in0.0 mm 0.00 in0.0 mm 0.04 in1.0 mm
07:10 PM 47.4°F8.6°C 29.2°F-1.6°C 49% 4.0 mph NNW6.4 kmh NNW 6.0 mph9.7 kmh 30.16 in1021.3 mb 0.00 in0.0 mm 0.00 in0.0 mm 0.04 in1.0 mm
07:14 PM 47.3°F8.5°C 29.1°F-1.6°C 49% 11.0 mph NNW17.7 kmh NNW 11.0 mph17.7 kmh 30.16 in1021.3 mb 0.00 in0.0 mm 0.00 in0.0 mm 0.04 in1.0 mm
07:20 PM 46.9°F8.3°C 28.8°F-1.8°C 49% 6.0 mph NW9.7 kmh NW 10.0 mph16.1 kmh 30.16 in1021.3 mb 0.00 in0.0 mm 0.00 in0.0 mm 0.04 in1.0 mm
07:24 PM 46.8°F8.2°C 29.2°F-1.6°C 50% 6.0 mph N9.7 kmh N 6.0 mph9.7 kmh 30.16 in1021.3 mb 0.00 in0.0 mm 0.00 in0.0 mm 0.04 in1.0 mm
07:30 PM 46.6°F8.1°C 28.5°F-1.9°C 49% 8.0 mph NW12.9 kmh NW 8.0 mph12.9 kmh 30.17 in1021.7 mb 0.00 in0.0 mm 0.00 in0.0 mm 0.04 in1.0 mm
07:35 PM 46.3°F7.9°C 28.2°F-2.1°C 49% 6.0 mph NNW9.7 kmh NNW 11.0 mph17.7 kmh 30.17 in1021.7 mb 0.00 in0.0 mm 0.00 in0.0 mm 0.04 in1.0 mm
07:40 PM 46.0°F7.8°C 27.9°F-2.3°C 49% 6.0 mph N9.7 kmh N 6.0 mph9.7 kmh 30.17 in1021.7 mb 0.00 in0.0 mm 0.00 in0.0 mm 0.04 in1.0 mm
07:45 PM 45.9°F7.7°C 28.3°F-2.1°C 50% 5.0 mph N8.0 kmh N 9.0 mph14.5 kmh 30.18 in1022.0 mb 0.00 in0.0 mm 0.00 in0.0 mm 0.04 in1.0 mm
07:50 PM 45.7°F7.6°C 28.6°F-1.9°C 51% 8.0 mph NNW12.9 kmh NNW 8.0 mph12.9 kmh 30.18 in1022.0 mb 0.00 in0.0 mm 0.00 in0.0 mm 0.04 in1.0 mm
07:55 PM 45.5°F7.5°C 28.4°F-2.0°C 51% 3.0 mph NNW4.8 kmh NNW 5.0 mph8.0 kmh 30.18 in1022.0 mb 0.00 in0.0 mm 0.00 in0.0 mm 0.04 in1.0 mm
08:00 PM 45.2°F7.3°C 28.2°F-2.1°C 51% 8.0 mph NW12.9 kmh NW 9.0 mph14.5 kmh 30.18 in1022.0 mb 0.00 in0.0 mm 0.00 in0.0 mm 0.04 in1.0 mm
08:05 PM 45.1°F7.3°C 28.5°F-1.9°C 52% 5.0 mph NW8.0 kmh NW 5.0 mph8.0 kmh 30.18 in1022.0 mb 0.00 in0.0 mm 0.00 in0.0 mm 0.04 in1.0 mm
08:10 PM 44.9°F7.2°C 28.8°F-1.8°C 53% 9.0 mph NNW14.5 kmh NNW 12.0 mph19.3 kmh 30.18 in1022.0 mb 0.00 in0.0 mm 0.00 in0.0 mm 0.04 in1.0 mm
08:15 PM 44.7°F7.1°C 28.6°F-1.9°C 53% 8.0 mph N12.9 kmh N 8.0 mph12.9 kmh 30.18 in1022.0 mb 0.00 in0.0 mm 0.00 in0.0 mm 0.04 in1.0 mm
08:20 PM 44.5°F6.9°C 27.5°F-2.5°C 51% 9.0 mph NNW14.5 kmh NNW 9.0 mph14.5 kmh 30.18 in1022.0 mb 0.00 in0.0 mm 0.00 in0.0 mm 0.04 in1.0 mm
08:24 PM 44.3°F6.8°C 27.8°F-2.3°C 52% 5.0 mph NNW8.0 kmh NNW 6.0 mph9.7 kmh 30.19 in1022.4 mb 0.00 in0.0 mm 0.00 in0.0 mm 0.04 in1.0 mm
08:30 PM 44.1°F6.7°C 28.1°F-2.2°C 53% 8.0 mph NNW12.9 kmh NNW 10.0 mph16.1 kmh 30.19 in1022.4 mb 0.00 in0.0 mm 0.00 in0.0 mm 0.04 in1.0 mm
08:35 PM 44.0°F6.7°C 28.4°F-2.0°C 54% 3.0 mph NNW4.8 kmh NNW 6.0 mph9.7 kmh 30.19 in1022.4 mb 0.00 in0.0 mm 0.00 in0.0 mm 0.04 in1.0 mm
08:40 PM 43.9°F6.6°C 28.4°F-2.0°C 54% 5.0 mph NNW8.0 kmh NNW 5.0 mph8.0 kmh 30.19 in1022.4 mb 0.00 in0.0 mm 0.00 in0.0 mm 0.04 in1.0 mm
08:45 PM 43.8°F6.6°C 28.3°F-2.1°C 54% 4.0 mph N6.4 kmh N 8.0 mph12.9 kmh 30.19 in1022.4 mb 0.00 in0.0 mm 0.00 in0.0 mm 0.04 in1.0 mm
08:50 PM 43.6°F6.4°C 28.5°F-1.9°C 55% 3.0 mph N4.8 kmh N 3.0 mph4.8 kmh 30.19 in1022.4 mb 0.00 in0.0 mm 0.00 in0.0 mm 0.04 in1.0 mm
08:55 PM 43.4°F6.3°C 28.8°F-1.8°C 56% 1.0 mph NNW1.6 kmh NNW 1.0 mph1.6 kmh 30.20 in1022.7 mb 0.00 in0.0 mm 0.00 in0.0 mm 0.04 in1.0 mm
09:00 PM 43.3°F6.3°C 28.7°F-1.8°C 56% 1.0 mph N1.6 kmh N 3.0 mph4.8 kmh 30.20 in1022.7 mb 0.00 in0.0 mm 0.00 in0.0 mm 0.04 in1.0 mm
09:05 PM 43.2°F6.2°C 29.0°F-1.7°C 57% 4.0 mph NNW6.4 kmh NNW 5.0 mph8.0 kmh 30.20 in1022.7 mb 0.00 in0.0 mm 0.00 in0.0 mm 0.04 in1.0 mm
09:10 PM 43.0°F6.1°C 28.8°F-1.8°C 57% 2.0 mph NNW3.2 kmh NNW 2.0 mph3.2 kmh 30.20 in1022.7 mb 0.00 in0.0 mm 0.00 in0.0 mm 0.04 in1.0 mm
09:15 PM 42.9°F6.1°C 29.2°F-1.6°C 58% 2.0 mph N3.2 kmh N 3.0 mph4.8 kmh 30.20 in1022.7 mb 0.00 in0.0 mm 0.00 in0.0 mm 0.04 in1.0 mm
09:20 PM 42.7°F5.9°C 29.0°F-1.7°C 58% 2.0 mph N3.2 kmh N 2.0 mph3.2 kmh 30.20 in1022.7 mb 0.00 in0.0 mm 0.00 in0.0 mm 0.04 in1.0 mm
09:24 PM 42.5°F5.8°C 28.8°F-1.8°C 58% 2.0 mph N3.2 kmh N 2.0 mph3.2 kmh 30.21 in1023.0 mb 0.00 in0.0 mm 0.00 in0.0 mm 0.04 in1.0 mm
09:30 PM 42.4°F5.8°C 28.7°F-1.8°C 58% 2.0 mph N3.2 kmh N 3.0 mph4.8 kmh 30.21 in1023.0 mb 0.00 in0.0 mm 0.00 in0.0 mm 0.04 in1.0 mm
09:35 PM 42.2°F5.7°C 28.5°F-1.9°C 58% 2.0 mph N3.2 kmh N 2.0 mph3.2 kmh 30.21 in1023.0 mb 0.00 in0.0 mm 0.00 in0.0 mm 0.04 in1.0 mm
09:39 PM 42.1°F5.6°C 28.4°F-2.0°C 58% 2.0 mph NNE3.2 kmh NNE 2.0 mph3.2 kmh 30.22 in1023.4 mb 0.00 in0.0 mm 0.00 in0.0 mm 0.04 in1.0 mm
09:45 PM 41.8°F5.4°C 29.0°F-1.7°C 60% 4.0 mph N6.4 kmh N 4.0 mph6.4 kmh 30.22 in1023.4 mb 0.00 in0.0 mm 0.00 in0.0 mm 0.04 in1.0 mm
09:50 PM 41.5°F5.3°C 29.1°F-1.6°C 61% 2.0 mph NNE3.2 kmh NNE 2.0 mph3.2 kmh 30.22 in1023.4 mb 0.00 in0.0 mm 0.00 in0.0 mm 0.04 in1.0 mm
09:55 PM 41.3°F5.2°C 29.3°F-1.5°C 62% 2.0 mph N3.2 kmh N 2.0 mph3.2 kmh 30.23 in1023.7 mb 0.00 in0.0 mm 0.00 in0.0 mm 0.04 in1.0 mm
09:59 PM 41.1°F5.1°C 29.5°F-1.4°C 63% 8.0 mph N12.9 kmh N 10.0 mph16.1 kmh 30.23 in1023.7 mb 0.00 in0.0 mm 0.00 in0.0 mm 0.04 in1.0 mm
10:05 PM 40.9°F4.9°C 29.3°F-1.5°C 63% 6.0 mph NW9.7 kmh NW 8.0 mph12.9 kmh 30.23 in1023.7 mb 0.00 in0.0 mm 0.00 in0.0 mm 0.04 in1.0 mm
10:10 PM 40.7°F4.8°C 29.5°F-1.4°C 64% 5.0 mph N8.0 kmh N 5.0 mph8.0 kmh 30.23 in1023.7 mb 0.00 in0.0 mm 0.00 in0.0 mm 0.04 in1.0 mm
10:15 PM 40.6°F4.8°C 29.4°F-1.4°C 64% 8.0 mph NNW12.9 kmh NNW 8.0 mph12.9 kmh 30.23 in1023.7 mb 0.00 in0.0 mm 0.00 in0.0 mm 0.04 in1.0 mm
10:20 PM 40.4°F4.7°C 29.2°F-1.6°C 64% 8.0 mph N12.9 kmh N 10.0 mph16.1 kmh 30.23 in1023.7 mb 0.00 in0.0 mm 0.00 in0.0 mm 0.04 in1.0 mm
10:25 PM 40.2°F4.6°C 29.4°F-1.4°C 65% 4.0 mph N6.4 kmh N 4.0 mph6.4 kmh 30.24 in1024.0 mb 0.00 in0.0 mm 0.00 in0.0 mm 0.04 in1.0 mm
10:30 PM 40.0°F4.4°C 29.6°F-1.3°C 66% 8.0 mph NNW12.9 kmh NNW 8.0 mph12.9 kmh 30.24 in1024.0 mb 0.00 in0.0 mm 0.00 in0.0 mm 0.04 in1.0 mm
10:35 PM 39.9°F4.4°C 29.5°F-1.4°C 66% 8.0 mph NW12.9 kmh NW 8.0 mph12.9 kmh 30.24 in1024.0 mb 0.00 in0.0 mm 0.00 in0.0 mm 0.04 in1.0 mm
10:40 PM 39.7°F4.3°C 29.3°F-1.5°C 66% 4.0 mph N6.4 kmh N 4.0 mph6.4 kmh 30.24 in1024.0 mb 0.00 in0.0 mm 0.00 in0.0 mm 0.04 in1.0 mm
10:44 PM 39.5°F4.2°C 29.5°F-1.4°C 67% 4.0 mph NNW6.4 kmh NNW 5.0 mph8.0 kmh 30.24 in1024.0 mb 0.00 in0.0 mm 0.00 in0.0 mm 0.04 in1.0 mm
10:49 PM 39.3°F4.1°C 29.6°F-1.3°C 68% 4.0 mph NNW6.4 kmh NNW 4.0 mph6.4 kmh 30.24 in1024.0 mb 0.00 in0.0 mm 0.00 in0.0 mm 0.04 in1.0 mm
10:55 PM 39.1°F3.9°C 29.5°F-1.4°C 68% 1.0 mph N1.6 kmh N 1.0 mph1.6 kmh 30.25 in1024.4 mb 0.00 in0.0 mm 0.00 in0.0 mm 0.04 in1.0 mm
11:00 PM 38.9°F3.8°C 29.3°F-1.5°C 68% 3.0 mph N4.8 kmh N 4.0 mph6.4 kmh 30.25 in1024.4 mb 0.00 in0.0 mm 0.00 in0.0 mm 0.04 in1.0 mm
11:05 PM 38.7°F3.7°C 29.1°F-1.6°C 68% 5.0 mph NNW8.0 kmh NNW 6.0 mph9.7 kmh 30.25 in1024.4 mb 0.00 in0.0 mm 0.00 in0.0 mm 0.04 in1.0 mm
11:10 PM 38.6°F3.7°C 28.6°F-1.9°C 67% 1.0 mph N1.6 kmh N 6.0 mph9.7 kmh 30.25 in1024.4 mb 0.00 in0.0 mm 0.00 in0.0 mm 0.04 in1.0 mm
11:15 PM 38.5°F3.6°C 28.5°F-1.9°C 67% 4.0 mph NNW6.4 kmh NNW 8.0 mph12.9 kmh 30.24 in1024.0 mb 0.00 in0.0 mm 0.00 in0.0 mm 0.04 in1.0 mm
11:20 PM 38.4°F3.6°C 28.4°F-2.0°C 67% 3.0 mph NNE4.8 kmh NNE 3.0 mph4.8 kmh 30.24 in1024.0 mb 0.00 in0.0 mm 0.00 in0.0 mm 0.04 in1.0 mm
11:24 PM 38.2°F3.4°C 28.6°F-1.9°C 68% 2.0 mph N3.2 kmh N 2.0 mph3.2 kmh 30.24 in1024.0 mb 0.00 in0.0 mm 0.00 in0.0 mm 0.04 in1.0 mm
11:30 PM 38.0°F3.3°C 28.4°F-2.0°C 68% 3.0 mph N4.8 kmh N 3.0 mph4.8 kmh 30.24 in1024.0 mb 0.00 in0.0 mm 0.00 in0.0 mm 0.04 in1.0 mm
11:35 PM 37.9°F3.3°C 28.3°F-2.1°C 68% 2.0 mph NNW3.2 kmh NNW 4.0 mph6.4 kmh 30.25 in1024.4 mb 0.00 in0.0 mm 0.00 in0.0 mm 0.04 in1.0 mm
11:40 PM 37.8°F3.2°C 27.8°F-2.3°C 67% 3.0 mph N4.8 kmh N 6.0 mph9.7 kmh 30.25 in1024.4 mb 0.00 in0.0 mm 0.00 in0.0 mm 0.04 in1.0 mm
11:44 PM 37.7°F3.2°C 27.8°F-2.3°C 67% 4.0 mph NNW6.4 kmh NNW 4.0 mph6.4 kmh 30.25 in1024.4 mb 0.00 in0.0 mm 0.00 in0.0 mm 0.04 in1.0 mm
11:50 PM 37.6°F3.1°C 27.7°F-2.4°C 67% 2.0 mph N3.2 kmh N 3.0 mph4.8 kmh 30.25 in1024.4 mb 0.00 in0.0 mm 0.00 in0.0 mm 0.04 in1.0 mm
11:54 PM 37.4°F3.0°C 27.5°F-2.5°C 67% 4.0 mph N6.4 kmh N 5.0 mph8.0 kmh 30.25 in1024.4 mb 0.00 in0.0 mm 0.00 in0.0 mm 0.04 in1.0 mm